Ana Sayfa
METAR-TAF:

METAR-TAF

Havaalanları :

Mauritius, Mauritius

Enlem: 20-26S, Boylam: 057-40E, yükseklik: 55 m

Güncel hava durumu gözlemi

Rapor saat 06:00 UTC de 21 dakika önce yapıldı.
Rüzgar doğu/güneydoğudan 3 kt
Sıcaklık 29°C
Nem 74%
Basınç 1011 hPa
Görüş mesafesi 10 km veya daha fazla
1900 ft yükseklikte parçalı bulutlu

METAR: FIMP 240600Z 11003KT 9999 SCT019 29/24 Q1011

Saat: 10:21 (06:21 UTC)

Tahmin

Rapor saat 05:30 UTC de 51 dakika önce yapıldı.
Ayın 24'si saat 06 UTC'den ayın 25'si saat 12 UTC'ye kadar geçerli Tahmin
Rüzgar değişken yönden 5 kt
Görüş mesafesi 10 km veya daha fazla
1800 ft yükseklikte parçalı bulutlu
Olasılık 30% :
Geçici
ayın 24'si saat 09 UTC'den ayın 24'si saat 15 UTC'ye kadar
Görüş mesafesi: 5000 m
800 ft yükseklikte az bulutlu
1500 ft yükseklikte parçalı çok bulutlu
hafif sağanak yağmurlar

TAF: FIMP 240530Z 2406/2512 VRB05KT 9999 SCT018 PROB30 TEMPO 2409/2415 5000 -SHRA FEW008 BKN015

4.000'den fazla havaalanı için hava durumu gözlemleri ve tahminleri (METAR ve TAF raporları).

Kullanılabilir istasyonlar harita üzerinde sarı ve kırmızı noktalarla gösterilir.

İstasyonun adını görmek için fareyi noktanın üzerinde gezdirin.

Sonrasında hava gözlem ve tahminlerini görmek için tıklayın.

Haritayı değiştirmek için: yaklaştırmak için siyah artı işaretli yeşil düğmeye ve uzaklaştırmak için de eksi işaretli düğmeye hızla tıklayın; bitişik haritalar için yeşil okları kullanın.


METAR-TAF: